Beason, IL (62512)

5:25 AM CST on December 22, 2014 (GMT -0600)
Lincoln | Change Station
CLOSE
Current Station
Airport
Location: Lincoln,
Elevation: 597 ft
Nearby Weather Stations

Elev 597 ft 40.16 °N, 89.34 °W | Updated 10 minutes ago

Overcast
Overcast
36 °F
Feels Like 30 °F
N
7
Wind Variable Wind from ESE

Today
High -- | Low -- °F
--% Chance of Precip.
Yesterday
High -- | Low -- °F
Precip. -- in
7:16 AM 4:34 PM
New Moon, 0% visible
Pressure 29.88 in
Visibility 7.0 miles
Clouds Overcast 4800 ft
Windchill 30 °F
Dew Point 32 °F
Humidity 87%
Rainfall 0.00 in
Snow Depth Not available.
UV 0 out of 12
Pollen .10 out of 12
Air Quality Not available.
Flu Activity Not available.
METAR KAAA 221115Z AUTO 12006KT 7SM OVC048 02/00 A2988 RMK AO2 T00200000

More Conditions Fewer Conditions

Pressure 29.88 in
Visibility 7.0 miles
Clouds Overcast 4800 ft
Windchill 30 °F
Dew Point 32 °F
Humidity 87%
Rainfall 0.00 in
Snow Depth Not available.
UV 0 out of 12
Pollen .10 out of 12
Air Quality Not available.
Flu Activity Not available.
METAR KAAA 221115Z AUTO 12006KT 7SM OVC048 02/00 A2988 RMK AO2 T00200000

More Conditions Fewer Conditions

10-Day Weather Forecast

Almanac

Astronomy

Dec. 22, 2014 Rise Set
Actual Time
Civil Twilight
Nautical Twilight
Astronomical Twilight
Moon
Length of Visible Light
Length of Day
Tomorrow will be .
, % of the Moon is Illuminated

Today's Extremes

State Highs State Lows

Community

WunderPhotos

Upload Photos

1,779,587 photos uploaded!

WunderBlogs® & News

Nearby

Air Quality

  Air Quality AQ Index Pollutant
Not available.

Snow Depth

Station Depth Elevation

Earthquake Activity

City Distance Mag. Time & Date
Minimum magnitude displayed is 2.5.

Coastal Water Temperatures

Place Temperature

Nearby Weather Stations